^^
Saratoga-Weather Station Historical Data
Daily Summary for March 20, 2021 Units:  Metric    English   Both
Daily Weekly Monthly Yearly Custom
  High: Low: Average:
Temperature: 27.1 °C 18.7 °C 21.5 °C
Dew Point: 19.7 °C 15.2 °C 18.1 °C
Humidity: 95% 49% 82%
Wind Speed: 14.3km/h 0km/h 1.8km/h
Wind Gust: 16.1km/h - -
Wind- - SSW
Pressure: 1009.8 hPa 1003.0 hPa -
Precipitation: 2.3 mm    
Historical Graphs
 
 
Tabular Data for March 20, 2021
Time Temperature Dew Point Pressure Wind Wind Speed Wind Gust Humidity Rainfall Rate (Hourly) solar
00:04 21.2 °C 19.7 °C 1006.8 hPa West 9.7 km/h 14.5 km/h 91% 7.6 mm 0 W/m2
00:09 21.2 °C 19.7 °C 1006.8 hPa West 6.4 km/h 16.1 km/h 91% 4.3 mm 0 W/m2
00:14 21.2 °C 19.7 °C 1006.8 hPa West 6.4 km/h 11.3 km/h 91% 2.3 mm 0 W/m2
00:19 21.2 °C 19.5 °C 1007.1 hPa WSW 3.2 km/h 11.3 km/h 90% 2.3 mm 0 W/m2
00:24 21.3 °C 19.6 °C 1007.1 hPa WSW 3.2 km/h 6.4 km/h 90% 1.8 mm 0 W/m2
00:29 21.2 °C 19.5 °C 1007.1 hPa NW 1.4 km/h 1.6 km/h 90% 1.8 mm 0 W/m2
00:34 21.2 °C 19.5 °C 1007.1 hPa WSW 4.7 km/h 6.4 km/h 90% 0.2 mm 0 W/m2
00:39 21.1 °C 19.6 °C 1007.1 hPa West 1.4 km/h 8 km/h 91% 0.0 mm 0 W/m2
00:44 20.9 °C 19.4 °C 1007.1 hPa Calm   1.6 km/h 91% 0.0 mm 0 W/m2
00:49 20.9 °C 19.4 °C 1007.1 hPa Calm   8 km/h 91% 0.0 mm 0 W/m2
00:54 20.8 °C 19.5 °C 1007.1 hPa WSW 3.2 km/h 4.8 km/h 92% 0.0 mm 0 W/m2
00:59 20.7 °C 19.4 °C 1007.1 hPa SW 4.7 km/h 4.8 km/h 92% 0.0 mm 0 W/m2
01:04 20.7 °C 19.4 °C 1007.1 hPa West 1.4 km/h 6.4 km/h 92% 0.0 mm 0 W/m2
01:09 20.6 °C 19.1 °C 1007.1 hPa WSW 3.2 km/h 4.8 km/h 91% 0.0 mm 0 W/m2
01:14 20.6 °C 19.1 °C 1007.1 hPa Calm   6.4 km/h 91% 0.0 mm 0 W/m2
01:19 20.6 °C 19.1 °C 1007.5 hPa Calm   6.4 km/h 91% 0.0 mm 0 W/m2
01:24 20.6 °C 18.9 °C 1007.8 hPa Calm   6.4 km/h 90% 0.0 mm 0 W/m2
01:29 20.6 °C 19.1 °C 1008.1 hPa ENE 4.7 km/h 8 km/h 91% 0.0 mm 0 W/m2
01:34 20.6 °C 18.9 °C 1007.8 hPa Calm     90% 0.0 mm 0 W/m2
01:39 20.6 °C 19.1 °C 1007.8 hPa WNW 1.4 km/h 6.4 km/h 91% 0.0 mm 0 W/m2
01:44 20.5 °C 18.8 °C 1007.5 hPa North 1.4 km/h 3.2 km/h 90% 0.0 mm 0 W/m2
01:49 20.4 °C 18.9 °C 1007.1 hPa North 4.7 km/h 4.8 km/h 91% 0.0 mm 0 W/m2
01:54 20.3 °C 18.8 °C 1007.5 hPa SSW 3.2 km/h 4.8 km/h 91% 0.0 mm 0 W/m2
01:59 20.2 °C 18.7 °C 1007.5 hPa NNE 1.4 km/h 4.8 km/h 91% 0.0 mm 0 W/m2
02:04 20.3 °C 18.6 °C 1007.1 hPa SSE 1.4 km/h 4.8 km/h 90% 0.0 mm 0 W/m2
02:09 20.2 °C 18.7 °C 1006.8 hPa Calm   3.2 km/h 91% 0.0 mm 0 W/m2
02:14 20.1 °C 18.6 °C 1007.1 hPa Calm   1.6 km/h 91% 0.0 mm 0 W/m2
02:19 20 °C 18.5 °C 1007.1 hPa Calm     91% 0.0 mm 0 W/m2
02:24 19.9 °C 18.4 °C 1007.1 hPa Calm   4.8 km/h 91% 0.0 mm 0 W/m2
02:29 19.8 °C 18.3 °C 1006.8 hPa Calm     91% 0.0 mm 0 W/m2
02:34 19.8 °C 18.3 °C 1006.8 hPa Calm   1.6 km/h 91% 0.0 mm 0 W/m2
02:39 19.7 °C 18.2 °C 1006.8 hPa Calm   1.6 km/h 91% 0.0 mm 0 W/m2
02:44 19.7 °C 18.2 °C 1006.4 hPa Calm   3.2 km/h 91% 0.0 mm 0 W/m2
02:49 19.7 °C 18.4 °C 1006.8 hPa Calm   1.6 km/h 92% 0.0 mm 0 W/m2
02:54 19.6 °C 18.3 °C 1007.8 hPa NNW 1.4 km/h 8 km/h 92% 0.0 mm 0 W/m2
02:59 19.6 °C 18.3 °C 1007.8 hPa Calm   6.4 km/h 92% 0.0 mm 0 W/m2
03:04 19.5 °C 18.2 °C 1008.1 hPa NNW 4.7 km/h 4.8 km/h 92% 0.0 mm 0 W/m2
03:09 19.6 °C 18.3 °C 1008.1 hPa NNW 4.7 km/h 4.8 km/h 92% 0.0 mm 0 W/m2
03:14 19.6 °C 18.3 °C 1008.1 hPa West 4.7 km/h 9.7 km/h 92% 0.0 mm 0 W/m2
03:19 19.6 °C 18.1 °C 1008.1 hPa Calm   3.2 km/h 91% 0.0 mm 0 W/m2
03:24 19.6 °C 18.1 °C 1008.1 hPa NW 1.4 km/h 8 km/h 91% 0.0 mm 0 W/m2
03:29 19.6 °C 18.1 °C 1008.5 hPa NW 4.7 km/h 11.3 km/h 91% 0.0 mm 0 W/m2
03:34 19.5 °C 18 °C 1008.5 hPa Calm   6.4 km/h 91% 0.0 mm 0 W/m2
03:39 19.5 °C 18 °C 1008.1 hPa NNW 4.7 km/h 9.7 km/h 91% 0.0 mm 0 W/m2
03:44 19.5 °C 18 °C 1008.1 hPa WNW 1.4 km/h 4.8 km/h 91% 0.0 mm 0 W/m2
03:49 19.5 °C 18 °C 1008.5 hPa WNW 3.2 km/h 12.9 km/h 91% 0.0 mm 0 W/m2
03:54 19.5 °C 18 °C 1008.1 hPa NNE 1.4 km/h 14.5 km/h 91% 0.0 mm 0 W/m2
03:59 19.5 °C 18 °C 1008.5 hPa NNW 4.7 km/h 8 km/h 91% 0.0 mm 0 W/m2
04:04 19.5 °C 18 °C 1008.5 hPa NW 3.2 km/h 14.5 km/h 91% 0.0 mm 0 W/m2
04:09 19.5 °C 18 °C 1008.5 hPa ENE 3.2 km/h 8 km/h 91% 0.0 mm 0 W/m2
04:14 19.4 °C 17.9 °C 1008.5 hPa WNW 4.7 km/h 9.7 km/h 91% 0.0 mm 0 W/m2
04:19 19.4 °C 17.9 °C 1008.8 hPa North 3.2 km/h 3.2 km/h 91% 0.0 mm 0 W/m2
04:24 19.4 °C 17.9 °C 1008.5 hPa NW 1.4 km/h 6.4 km/h 91% 0.0 mm 0 W/m2
04:29 19.4 °C 17.9 °C 1008.8 hPa NE 6.4 km/h 11.3 km/h 91% 0.0 mm 0 W/m2
04:34 19.4 °C 17.9 °C 1008.8 hPa WNW 14.3 km/h 16.1 km/h 91% 0.0 mm 0 W/m2
04:40 19.5 °C 18 °C 1008.8 hPa WNW 4.7 km/h 6.4 km/h 91% 0.0 mm 0 W/m2
04:45 19.6 °C 17.9 °C 1008.8 hPa West 4.7 km/h 9.7 km/h 90% 0.0 mm 0 W/m2
04:50 19.6 °C 17.9 °C 1008.8 hPa WNW 6.4 km/h 12.9 km/h 90% 0.0 mm 0 W/m2
04:55 19.5 °C 17.8 °C 1009.1 hPa West 4.7 km/h 4.8 km/h 90% 0.0 mm 0 W/m2
05:00 19.5 °C 17.8 °C 1009.1 hPa NW 6.4 km/h 9.7 km/h 90% 0.0 mm 0 W/m2
05:05 19.5 °C 17.8 °C 1009.1 hPa Calm   9.7 km/h 90% 0.0 mm 0 W/m2
05:10 19.4 °C 17.7 °C 1009.1 hPa West 1.4 km/h 11.3 km/h 90% 0.0 mm 0 W/m2
05:15 19.4 °C 17.7 °C 1009.1 hPa NW 4.7 km/h 11.3 km/h 90% 0.0 mm 0 W/m2
05:20 19.4 °C 17.7 °C 1009.1 hPa North 4.7 km/h 9.7 km/h 90% 0.0 mm 0 W/m2
05:25 19.4 °C 17.7 °C 1009.5 hPa West 1.4 km/h 6.4 km/h 90% 0.0 mm 0 W/m2
05:30 19.4 °C 17.7 °C 1009.5 hPa Calm   3.2 km/h 90% 0.0 mm 0 W/m2
05:35 19.4 °C 17.7 °C 1009.1 hPa WNW 7.9 km/h 9.7 km/h 90% 0.0 mm 0 W/m2
05:40 19.4 °C 17.7 °C 1009.1 hPa West 6.4 km/h 12.9 km/h 90% 0.0 mm 0 W/m2
05:45 19.3 °C 17.6 °C 1009.1 hPa NW 1.4 km/h 16.1 km/h 90% 0.0 mm 7 W/m2
05:50 19.3 °C 17.6 °C 1009.1 hPa WNW 3.2 km/h 4.8 km/h 90% 0.0 mm 11 W/m2
05:55 19.2 °C 17.5 °C 1009.1 hPa WNW 1.4 km/h 6.4 km/h 90% 0.0 mm 11 W/m2
06:00 19.2 °C 17.7 °C 1009.1 hPa Calm   6.4 km/h 91% 0.0 mm 12 W/m2
06:05 19.1 °C 17.6 °C 1009.1 hPa Calm   3.2 km/h 91% 0.0 mm 14 W/m2
06:10 19 °C 17.5 °C 1009.5 hPa Calm   6.4 km/h 91% 0.0 mm 18 W/m2
06:15 18.9 °C 17.4 °C 1009.5 hPa NNW 3.2 km/h 4.8 km/h 91% 0.0 mm 44 W/m2
06:20 18.9 °C 17.4 °C 1009.1 hPa Calm   1.6 km/h 91% 0.0 mm 21 W/m2
06:25 18.9 °C 17.4 °C 1009.1 hPa NNW 4.8 km/h 4.8 km/h 91% 0.0 mm 21 W/m2
06:30 18.9 °C 17.6 °C 1009.5 hPa Calm     92% 0.0 mm 40 W/m2
06:35 18.8 °C 17.5 °C 1009.5 hPa Calm     92% 0.0 mm 35 W/m2
06:40 18.8 °C 17.5 °C 1009.5 hPa Calm     92% 0.0 mm 32 W/m2
06:45 18.7 °C 17.4 °C 1009.5 hPa Calm     92% 0.0 mm 39 W/m2
06:50 18.8 °C 17.5 °C 1009.5 hPa Calm   3.2 km/h 92% 0.0 mm 51 W/m2
06:55 18.9 °C 17.6 °C 1009.5 hPa NW 1.4 km/h 1.6 km/h 92% 0.0 mm 46 W/m2
07:00 18.9 °C 17.6 °C 1009.5 hPa WNW 1.4 km/h 3.2 km/h 92% 0.0 mm 46 W/m2
07:05 19.1 °C 17.8 °C 1009.5 hPa Calm   3.2 km/h 92% 0.0 mm 54 W/m2
07:10 19.2 °C 17.7 °C 1009.5 hPa NNW 3.2 km/h 8 km/h 91% 0.0 mm 77 W/m2
07:15 19.3 °C 17.8 °C 1009.5 hPa NW 1.4 km/h 6.4 km/h 91% 0.0 mm 74 W/m2
07:20 19.4 °C 17.7 °C 1009.5 hPa NNW 3.2 km/h 3.2 km/h 90% 0.0 mm 70 W/m2
07:25 19.4 °C 17.7 °C 1009.1 hPa Calm   1.6 km/h 90% 0.0 mm 81 W/m2
07:30 19.4 °C 17.7 °C 1009.5 hPa Calm   1.6 km/h 90% 0.0 mm 90 W/m2
07:35 19.6 °C 17.9 °C 1009.5 hPa Calm   3.2 km/h 90% 0.0 mm 105 W/m2
07:40 19.6 °C 17.7 °C 1009.5 hPa Calm   3.2 km/h 89% 0.0 mm 139 W/m2
07:45 19.7 °C 17.8 °C 1009.5 hPa Calm   3.2 km/h 89% 0.0 mm 207 W/m2
07:50 19.8 °C 17.9 °C 1009.8 hPa NW 1.4 km/h 4.8 km/h 89% 0.0 mm 243 W/m2
07:55 19.9 °C 17.9 °C 1009.8 hPa Calm   4.8 km/h 88% 0.0 mm 225 W/m2
08:00 20.1 °C 18 °C 1009.5 hPa NNE 1.4 km/h 1.6 km/h 88% 0.0 mm 278 W/m2
08:06 20.4 °C 18.2 °C 1009.5 hPa WSW 8 km/h 8 km/h 87% 0.0 mm 279 W/m2
08:11 20.4 °C 18 °C 1009.5 hPa West 3.2 km/h 14.5 km/h 86% 0.0 mm 211 W/m2
08:16 20.3 °C 17.9 °C 1009.5 hPa WNW 11.1 km/h 12.9 km/h 86% 0.0 mm 244 W/m2
08:21 20.2 °C 17.6 °C 1009.5 hPa Calm   14.5 km/h 85% 0.0 mm 186 W/m2
08:26 20.2 °C 17.6 °C 1009.5 hPa Calm   4.8 km/h 85% 0.0 mm 148 W/m2
08:31 20.3 °C 17.7 °C 1009.5 hPa WNW 11.1 km/h 12.9 km/h 85% 0.0 mm 128 W/m2
08:36 20.3 °C 17.5 °C 1009.5 hPa Calm   4.8 km/h 84% 0.0 mm 91 W/m2
08:41 20.4 °C 17.6 °C 1009.5 hPa West 3.2 km/h 12.9 km/h 84% 0.0 mm 100 W/m2
08:46 20.4 °C 17.6 °C 1009.8 hPa WNW 3.2 km/h 6.4 km/h 84% 0.0 mm 91 W/m2
08:51 20.4 °C 17.4 °C 1009.8 hPa Calm   8 km/h 83% 0.0 mm 93 W/m2
08:56 20.4 °C 17.2 °C 1009.8 hPa NNE 1.4 km/h 3.2 km/h 82% 0.0 mm 105 W/m2
09:01 20.5 °C 17.3 °C 1009.8 hPa Calm   3.2 km/h 82% 0.0 mm 105 W/m2
09:06 20.7 °C 17.5 °C 1009.8 hPa South 1.4 km/h 4.8 km/h 82% 0.0 mm 188 W/m2
09:11 20.9 °C 17.5 °C 1009.8 hPa ESE 1.4 km/h 3.2 km/h 81% 0.0 mm 151 W/m2
09:16 21.4 °C 18 °C 1009.8 hPa WSW 3.2 km/h 4.8 km/h 81% 0.0 mm 274 W/m2
09:21 21.7 °C 18.1 °C 1009.5 hPa SW 1.4 km/h 6.4 km/h 80% 0.0 mm 415 W/m2
09:26 21.6 °C 17.4 °C 1009.1 hPa NW 3.2 km/h 4.8 km/h 77% 0.0 mm 135 W/m2
09:31 21.3 °C 17.1 °C 1009.1 hPa Calm   4.8 km/h 77% 0.0 mm 105 W/m2
09:36 21.3 °C 17.7 °C 1009.1 hPa NW 1.4 km/h 3.2 km/h 80% 0.0 mm 557 W/m2
09:41 21.6 °C 17.6 °C 1009.1 hPa East 4.7 km/h 6.4 km/h 78% 0.0 mm 519 W/m2
09:46 21.9 °C 17.7 °C 1009.5 hPa ENE 3.2 km/h 4.8 km/h 77% 0.0 mm 615 W/m2
09:51 22.1 °C 17.9 °C 1009.5 hPa NE 1.4 km/h 4.8 km/h 77% 0.0 mm 192 W/m2
09:56 22.1 °C 17.5 °C 1009.1 hPa ESE 3.2 km/h 3.2 km/h 75% 0.0 mm 195 W/m2
10:01 22.2 °C 17.6 °C 1009.1 hPa Calm     75% 0.0 mm 494 W/m2
10:06 22.2 °C 17.3 °C 1009.1 hPa WSW 1.4 km/h 6.4 km/h 74% 0.0 mm 404 W/m2
10:11 22.3 °C 17.7 °C 1009.5 hPa West 1.4 km/h 3.2 km/h 75% 0.0 mm 290 W/m2
10:16 22.4 °C 17.5 °C 1009.5 hPa East 3.2 km/h 4.8 km/h 74% 0.0 mm 229 W/m2
10:21 22.6 °C 17.7 °C 1009.5 hPa SE 1.4 km/h 9.7 km/h 74% 0.0 mm 192 W/m2
10:26 22.3 °C 16.6 °C 1009.5 hPa WNW 4.7 km/h 11.3 km/h 70% 0.0 mm 714 W/m2
10:31 22.4 °C 16.7 °C 1009.1 hPa NE 1.4 km/h 4.8 km/h 70% 0.0 mm 754 W/m2
10:36 22.7 °C 16.9 °C 1009.5 hPa NE 1.4 km/h 11.3 km/h 70% 0.0 mm 617 W/m2
10:41 22.9 °C 16.9 °C 1009.1 hPa WNW 6.4 km/h 11.3 km/h 69% 0.0 mm 415 W/m2
10:46 22.7 °C 16.7 °C 1009.5 hPa East 6.4 km/h 11.3 km/h 69% 0.0 mm 327 W/m2
10:51 22.5 °C 16.5 °C 1009.5 hPa WSW 1.4 km/h 11.3 km/h 69% 0.0 mm 374 W/m2
10:56 22.5 °C 17.2 °C 1009.5 hPa WSW 4.7 km/h 4.8 km/h 72% 0.0 mm 345 W/m2
11:01 22.6 °C 16.8 °C 1009.5 hPa NE 1.4 km/h 4.8 km/h 70% 0.0 mm 255 W/m2
11:06 22.4 °C 16.7 °C 1009.5 hPa Calm   4.8 km/h 70% 0.0 mm 248 W/m2
11:11 22.3 °C 17 °C 1009.1 hPa NNE 1.4 km/h 6.4 km/h 72% 0.0 mm 200 W/m2
11:16 22.4 °C 17.5 °C 1009.1 hPa ENE 3.2 km/h 3.2 km/h 74% 0.0 mm 425 W/m2
11:21 22.6 °C 17.5 °C 1009.1 hPa West 3.2 km/h 4.8 km/h 73% 0.0 mm 352 W/m2
11:26 22.7 °C 16.9 °C 1009.1 hPa Calm   8 km/h 70% 0.0 mm 308 W/m2
11:31 22.7 °C 17.2 °C 1009.1 hPa East 1.4 km/h 3.2 km/h 71% 0.0 mm 364 W/m2
11:36 22.8 °C 17.3 °C 1009.1 hPa Calm   8 km/h 71% 0.0 mm 299 W/m2
11:41 22.8 °C 17 °C 1008.8 hPa Calm   1.6 km/h 70% 0.0 mm 311 W/m2
11:46 22.9 °C 17.4 °C 1008.8 hPa WNW 1.4 km/h 4.8 km/h 71% 0.0 mm 988 W/m2
11:51 23 °C 17.5 °C 1008.5 hPa NNW 1.4 km/h 3.2 km/h 71% 0.0 mm 956 W/m2
11:56 23.2 °C 17.6 °C 1008.5 hPa West 1.4 km/h 6.4 km/h 71% 0.0 mm 976 W/m2
12:01 23.2 °C 17.4 °C 1008.5 hPa ENE 1.4 km/h 4.8 km/h 70% 0.0 mm 267 W/m2
12:06 23.3 °C 17.3 °C 1008.5 hPa Calm   3.2 km/h 69% 0.0 mm 302 W/m2
12:11 23.5 °C 17 °C 1008.5 hPa East 1.4 km/h 4.8 km/h 67% 0.0 mm 905 W/m2
12:16 23.8 °C 16.8 °C 1008.5 hPa ESE 1.4 km/h 6.4 km/h 65% 0.0 mm 265 W/m2
12:21 23.8 °C 16.8 °C 1008.5 hPa East 3.2 km/h 4.8 km/h 65% 0.0 mm 352 W/m2
12:26 23.7 °C 16.7 °C 1008.1 hPa NE 3.2 km/h 3.2 km/h 65% 0.0 mm 322 W/m2
12:31 23.7 °C 17 °C 1008.1 hPa ENE 3.2 km/h 4.8 km/h 66% 0.0 mm 454 W/m2
12:36 23.7 °C 17.9 °C 1008.5 hPa ESE 4.7 km/h 4.8 km/h 70% 0.0 mm 381 W/m2
12:41 23.8 °C 17.3 °C 1008.1 hPa NNW 4.7 km/h 4.8 km/h 67% 0.0 mm 443 W/m2
12:46 24 °C 17 °C 1007.8 hPa NE 4.7 km/h 4.8 km/h 65% 0.0 mm 893 W/m2
12:51 24.1 °C 17.3 °C 1007.8 hPa East 1.4 km/h 3.2 km/h 66% 0.0 mm 893 W/m2
12:56 24.4 °C 17.1 °C 1007.5 hPa West 6.4 km/h 6.4 km/h 64% 0.0 mm 923 W/m2
13:01 24.5 °C 17.7 °C 1007.5 hPa WNW 4.7 km/h 4.8 km/h 66% 0.0 mm 940 W/m2
13:06 24.8 °C 17.8 °C 1007.5 hPa ENE 3.2 km/h 8 km/h 65% 0.0 mm 990 W/m2
13:11 25.1 °C 18.1 °C 1007.5 hPa ENE 3.2 km/h 8 km/h 65% 0.0 mm 921 W/m2
13:16 25.1 °C 17.6 °C 1007.5 hPa SE 1.4 km/h 6.4 km/h 63% 0.0 mm 886 W/m2
13:21 25.1 °C 18.1 °C 1007.5 hPa NNW 1.4 km/h 3.2 km/h 65% 0.0 mm 789 W/m2
13:26 25.3 °C 18 °C 1007.1 hPa Calm   3.2 km/h 64% 0.0 mm 972 W/m2
13:32 25.6 °C 17.5 °C 1007.5 hPa East 1.4 km/h 4.8 km/h 61% 0.0 mm 949 W/m2
13:37 25.8 °C 17.7 °C 1007.5 hPa SSE 3.2 km/h 3.2 km/h 61% 0.0 mm 972 W/m2
13:42 25.9 °C 17.8 °C 1007.5 hPa SE 4.7 km/h 8 km/h 61% 0.0 mm 904 W/m2
13:47 25.9 °C 16.4 °C 1007.5 hPa ENE 4.7 km/h 11.3 km/h 56% 0.0 mm 918 W/m2
13:52 25.7 °C 16.5 °C 1007.1 hPa Calm   3.2 km/h 57% 0.0 mm 891 W/m2
13:57 25.8 °C 16.9 °C 1007.1 hPa East 3.2 km/h 11.3 km/h 58% 0.0 mm 888 W/m2
14:02 26 °C 17.6 °C 1007.1 hPa ENE 3.2 km/h 3.2 km/h 60% 0.0 mm 896 W/m2
14:07 26.2 °C 17.6 °C 1006.8 hPa NW 1.4 km/h 6.4 km/h 59% 0.0 mm 958 W/m2
14:12 26.3 °C 16.8 °C 1006.8 hPa South 1.4 km/h 9.7 km/h 56% 0.0 mm 819 W/m2
14:17 26.5 °C 17 °C 1006.4 hPa ENE 1.4 km/h 12.9 km/h 56% 0.0 mm 766 W/m2
14:22 26.5 °C 17 °C 1006.4 hPa NE 3.2 km/h 8 km/h 56% 0.0 mm 538 W/m2
14:27 26.5 °C 17.8 °C 1006.8 hPa ESE 3.2 km/h 12.9 km/h 59% 0.0 mm 406 W/m2
14:32 26.3 °C 16.5 °C 1006.8 hPa ESE 3.2 km/h 6.4 km/h 55% 0.0 mm 610 W/m2
14:37 26.3 °C 16.2 °C 1006.4 hPa ENE 1.4 km/h 1.6 km/h 54% 0.0 mm 357 W/m2
14:42 26.1 °C 16.1 °C 1006.4 hPa NNE 1.4 km/h 4.8 km/h 54% 0.0 mm 483 W/m2
14:47 26.1 °C 16.4 °C 1006.4 hPa Calm   4.8 km/h 55% 0.0 mm 362 W/m2
14:52 26.1 °C 16.4 °C 1006.1 hPa East 4.7 km/h 4.8 km/h 55% 0.0 mm 306 W/m2
14:57 26 °C 15.7 °C 1006.4 hPa NE 1.4 km/h 1.6 km/h 53% 0.0 mm 468 W/m2
15:02 26.1 °C 15.8 °C 1006.4 hPa ENE 1.4 km/h 1.6 km/h 53% 0.0 mm 540 W/m2
15:07 26.4 °C 16 °C 1006.4 hPa ENE 3.2 km/h 9.7 km/h 53% 0.0 mm 907 W/m2
15:12 26.8 °C 15.2 °C 1006.4 hPa NE 3.2 km/h 4.8 km/h 49% 0.0 mm 833 W/m2
15:17 26.8 °C 15.8 °C 1006.1 hPa WNW 1.4 km/h 9.7 km/h 51% 0.0 mm 849 W/m2
15:22 26.7 °C 15.7 °C 1005.8 hPa NNW 3.2 km/h 6.4 km/h 51% 0.0 mm 786 W/m2
15:27 26.9 °C 17.1 °C 1006.1 hPa Calm     55% 0.0 mm 446 W/m2
15:32 27 °C 15.7 °C 1006.1 hPa East 1.4 km/h 6.4 km/h 50% 0.0 mm 431 W/m2
15:37 27.1 °C 16.4 °C 1005.8 hPa South 1.4 km/h 3.2 km/h 52% 0.0 mm 290 W/m2
15:42 27.1 °C 17 °C 1005.8 hPa West 1.4 km/h 4.8 km/h 54% 0.0 mm 153 W/m2
15:47 26.7 °C 17.5 °C 1005.8 hPa WSW 3.2 km/h 3.2 km/h 57% 0.0 mm 139 W/m2
15:52 26.3 °C 17.6 °C 1005.8 hPa Calm     59% 0.0 mm 104 W/m2
15:57 25.8 °C 17.4 °C 1006.4 hPa SW 1.4 km/h 3.2 km/h 60% 0.0 mm 74 W/m2
16:02 25.4 °C 17.8 °C 1006.4 hPa SW 1.4 km/h 3.2 km/h 63% 0.0 mm 153 W/m2
16:07 25.1 °C 17.3 °C 1006.4 hPa WSW 1.4 km/h 3.2 km/h 62% 0.2 mm 269 W/m2
16:12 24.8 °C 19.2 °C 1006.1 hPa Calm   1.6 km/h 71% 0.5 mm 373 W/m2
16:17 24.6 °C 19 °C 1006.1 hPa Calm   6.4 km/h 71% 0.5 mm 921 W/m2
16:22 24.7 °C 18.9 °C 1006.1 hPa ENE 3.2 km/h 3.2 km/h 70% 0.5 mm 758 W/m2
16:27 24.9 °C 19.7 °C 1006.1 hPa ESE 3.2 km/h 6.4 km/h 73% 0.5 mm 526 W/m2
16:32 25 °C 18.2 °C 1005.8 hPa ESE 3.2 km/h 6.4 km/h 66% 0.5 mm 397 W/m2
16:37 24.9 °C 18.1 °C 1005.8 hPa SE 1.4 km/h 4.8 km/h 66% 0.5 mm 353 W/m2
16:42 24.8 °C 18 °C 1005.8 hPa SE 3.2 km/h 4.8 km/h 66% 0.5 mm 338 W/m2
16:47 24.8 °C 18.7 °C 1005.8 hPa SE 1.4 km/h 1.6 km/h 69% 0.5 mm 352 W/m2
16:52 24.8 °C 17.8 °C 1005.8 hPa Calm   3.2 km/h 65% 0.5 mm 322 W/m2
16:57 24.8 °C 17.5 °C 1005.8 hPa Calm   8 km/h 64% 0.5 mm 260 W/m2
17:02 24.7 °C 17.9 °C 1005.8 hPa Calm   3.2 km/h 66% 0.5 mm 199 W/m2
17:07 24.4 °C 18.8 °C 1005.8 hPa Calm   8 km/h 71% 0.2 mm 141 W/m2
17:12 24.2 °C 19.3 °C 1005.8 hPa South 1.4 km/h 3.2 km/h 74% 0.0 mm 86 W/m2
17:17 23.8 °C 18.9 °C 1005.8 hPa South 1.4 km/h 3.2 km/h 74% 0.0 mm 51 W/m2
17:22 23.5 °C 18.6 °C 1006.1 hPa Calm   1.6 km/h 74% 0.0 mm 32 W/m2
17:27 23.2 °C 18.7 °C 1006.1 hPa Calm   1.6 km/h 76% 0.0 mm 23 W/m2
17:32 22.8 °C 18.6 °C 1006.1 hPa South 1.4 km/h 3.2 km/h 77% 0.0 mm 18 W/m2
17:37 22.5 °C 18.7 °C 1006.1 hPa South 1.4 km/h 1.6 km/h 79% 0.0 mm 18 W/m2
17:42 22.2 °C 19 °C 1005.8 hPa South 1.4 km/h 3.2 km/h 82% 0.2 mm 23 W/m2
17:47 21.8 °C 19 °C 1005.8 hPa South 3.2 km/h 3.2 km/h 84% 0.5 mm 26 W/m2
17:52 21.5 °C 19.1 °C 1005.8 hPa Calm   1.6 km/h 86% 0.5 mm 44 W/m2
17:57 21.3 °C 19.2 °C 1005.1 hPa Calm   1.6 km/h 88% 1.0 mm 72 W/m2
18:02 21.2 °C 19.3 °C 1005.1 hPa Calm     89% 1.3 mm 127 W/m2
18:07 21.1 °C 19.4 °C 1005.1 hPa South 3.2 km/h 3.2 km/h 90% 1.5 mm 148 W/m2
18:12 21 °C 19.5 °C 1005.4 hPa South 1.4 km/h 3.2 km/h 91% 1.5 mm 158 W/m2
18:17 20.9 °C 19.6 °C 1005.4 hPa Calm     92% 1.5 mm 107 W/m2
18:22 20.9 °C 19.6 °C 1005.8 hPa Calm     92% 1.5 mm 58 W/m2
18:27 20.8 °C 19.5 °C 1005.8 hPa Calm     92% 1.5 mm 65 W/m2
18:32 20.7 °C 19.4 °C 1005.4 hPa Calm     92% 1.5 mm 86 W/m2
18:37 20.6 °C 19.3 °C 1005.1 hPa Calm     92% 1.5 mm 90 W/m2
18:42 20.5 °C 19.2 °C 1004.7 hPa Calm     92% 1.3 mm 105 W/m2
18:47 20.5 °C 19.2 °C 1004.7 hPa Calm     92% 1.3 mm 160 W/m2
18:52 20.6 °C 19.4 °C 1004.7 hPa Calm     93% 1.0 mm 142 W/m2
18:57 20.7 °C 19.5 °C 1004.4 hPa Calm     93% 0.5 mm 90 W/m2
19:02 20.8 °C 19.6 °C 1004.4 hPa Calm     93% 0.5 mm 51 W/m2
19:07 20.8 °C 19.6 °C 1004.4 hPa Calm     93% 0.2 mm 47 W/m2
19:12 20.8 °C 19.6 °C 1004.1 hPa ESE 1.4 km/h 4.8 km/h 93% 0.2 mm 47 W/m2
19:17 20.6 °C 19.3 °C 1004.4 hPa Calm   6.4 km/h 92% 0.2 mm 63 W/m2
19:22 20.7 °C 19.4 °C 1004.4 hPa Calm     92% 0.2 mm 70 W/m2
19:27 20.8 °C 19.6 °C 1004.1 hPa Calm   4.8 km/h 93% 0.2 mm 69 W/m2
19:32 20.8 °C 19.6 °C 1004.1 hPa Calm     93% 0.2 mm 67 W/m2
19:37 20.8 °C 19.6 °C 1004.1 hPa Calm     93% 0.2 mm 121 W/m2
19:42 20.8 °C 19.6 °C 1004.1 hPa Calm     93% 0.2 mm 84 W/m2
19:47 20.8 °C 19.6 °C 1004.1 hPa Calm     93% 0.0 mm 46 W/m2
19:52 20.8 °C 19.6 °C 1004.1 hPa Calm     93% 0.0 mm 54 W/m2
19:57 20.8 °C 19.6 °C 1004.4 hPa Calm     93% 0.0 mm 49 W/m2
20:02 20.9 °C 19.7 °C 1004.4 hPa Calm     93% 0.0 mm 21 W/m2
20:07 20.8 °C 19.6 °C 1004.4 hPa South 1.4 km/h 3.2 km/h 93% 0.0 mm 16 W/m2
20:22 20.5 °C 19.3 °C 1004.7 hPa Calm     93% 0.0 mm 5 W/m2
20:27 20.4 °C 19.2 °C 1004.7 hPa Calm     93% 0.0 mm 5 W/m2
20:32 20.3 °C 19.1 °C 1004.7 hPa Calm     93% 0.0 mm 11 W/m2
20:37 20.3 °C 19.1 °C 1004.7 hPa Calm     93% 0.0 mm 14 W/m2
20:42 20.2 °C 19.2 °C 1004.7 hPa Calm     94% 0.0 mm 14 W/m2
20:47 20.2 °C 19.2 °C 1004.7 hPa Calm     94% 0.0 mm 18 W/m2
20:52 20.2 °C 19.2 °C 1004.7 hPa Calm     94% 0.0 mm 19 W/m2
20:57 20.3 °C 19.3 °C 1004.7 hPa Calm     94% 0.0 mm 14 W/m2
21:02 20.3 °C 19.3 °C 1004.4 hPa Calm     94% 0.0 mm 5 W/m2
21:07 20.3 °C 19.3 °C 1004.4 hPa Calm     94% 0.0 mm 0 W/m2
21:12 20.3 °C 19.3 °C 1004.4 hPa Calm     94% 0.0 mm 0 W/m2
21:17 20.3 °C 19.5 °C 1004.4 hPa Calm     95% 0.0 mm 0 W/m2
21:22 20.3 °C 19.3 °C 1004.1 hPa Calm     94% 0.0 mm 0 W/m2
21:27 20.2 °C 19.2 °C 1003.7 hPa Calm     94% 0.0 mm 0 W/m2
21:32 20.2 °C 19.4 °C 1003.7 hPa Calm     95% 0.0 mm 0 W/m2
21:37 20.1 °C 19.3 °C 1004.1 hPa Calm     95% 0.2 mm 0 W/m2
21:42 20.1 °C 19.3 °C 1004.1 hPa Calm     95% 0.2 mm 0 W/m2
21:47 20 °C 19.2 °C 1004.1 hPa Calm     95% 0.2 mm 0 W/m2
21:52 20 °C 19.2 °C 1003.7 hPa Calm     95% 0.2 mm 0 W/m2
21:57 19.9 °C 19.1 °C 1004.1 hPa Calm     95% 0.2 mm 0 W/m2
22:02 20 °C 19.2 °C 1003.7 hPa ENE 1.4 km/h 3.2 km/h 95% 0.2 mm 0 W/m2
22:07 20 °C 19.2 °C 1003.7 hPa ENE 1.4 km/h 4.8 km/h 95% 0.2 mm 0 W/m2
22:12 20 °C 19 °C 1003.7 hPa Calm   4.8 km/h 94% 0.2 mm 0 W/m2
22:17 20 °C 19 °C 1003.7 hPa Calm   3.2 km/h 94% 0.2 mm 0 W/m2
22:22 20 °C 19 °C 1003.4 hPa Calm     94% 0.2 mm 0 W/m2
22:27 19.9 °C 18.9 °C 1003.4 hPa Calm   3.2 km/h 94% 0.2 mm 0 W/m2
22:32 19.9 °C 18.9 °C 1003.0 hPa Calm     94% 0.2 mm 0 W/m2
22:37 19.8 °C 18.8 °C 1003.0 hPa Calm     94% 0.0 mm 0 W/m2
22:42 19.8 °C 18.8 °C 1003.0 hPa Calm     94% 0.0 mm 0 W/m2
22:47 19.7 °C 18.7 °C 1003.0 hPa Calm     94% 0.0 mm 0 W/m2
22:52 19.6 °C 18.6 °C 1003.4 hPa ENE 1.4 km/h 1.6 km/h 94% 0.0 mm 0 W/m2
22:57 19.4 °C 18.4 °C 1003.4 hPa ENE 6.4 km/h 11.3 km/h 94% 0.0 mm 0 W/m2
23:02 19.4 °C 18.4 °C 1003.7 hPa NE 3.2 km/h 6.4 km/h 94% 0.0 mm 0 W/m2
23:07 19.4 °C 18.4 °C 1003.7 hPa NNW 1.4 km/h 11.3 km/h 94% 0.0 mm 0 W/m2
23:13 19.6 °C 18.4 °C 1003.7 hPa Calm   1.6 km/h 93% 0.0 mm 0 W/m2
23:18 19.6 °C 18.4 °C 1003.7 hPa NE 1.4 km/h 3.2 km/h 93% 0.0 mm 0 W/m2
23:23 19.6 °C 18.3 °C 1003.7 hPa ESE 1.4 km/h 4.8 km/h 92% 0.0 mm 0 W/m2
23:28 19.4 °C 18.1 °C 1003.7 hPa ENE 3.2 km/h 6.4 km/h 92% 0.0 mm 0 W/m2
23:33 19.3 °C 17.8 °C 1003.7 hPa NE 1.4 km/h 4.8 km/h 91% 0.0 mm 0 W/m2
23:38 19.3 °C 17.8 °C 1003.7 hPa Calm   3.2 km/h 91% 0.0 mm 0 W/m2
23:43 19.3 °C 17.8 °C 1003.7 hPa NNW 3.2 km/h 3.2 km/h 91% 0.0 mm 0 W/m2
23:48 19.2 °C 17.9 °C 1003.7 hPa NE 1.4 km/h 4.8 km/h 92% 0.0 mm 0 W/m2
23:53 19.2 °C 17.9 °C 1003.7 hPa NW 3.2 km/h 4.8 km/h 92% 0.0 mm 0 W/m2
23:58 19.2 °C 17.9 °C 1003.7 hPa NNW 3.2 km/h 4.8 km/h 92% 0.0 mm 0 W/m2
Juneau County Weather
Compliments of Weather Underground - 4 mb